Time;durP1;ratioP1;P1;durP2;ratioP2;P2;SDS_P1;SDS_P2;PMS_P1;PMS_P2;Temp;Humidity;BMP_temperature;BMP_pressure;BME280_temperature;BME280_humidity;BME280_pressure;Samples;Min_cycle;Max_cycle;Signal;HPM_P1;HPM_P2
2023/07/29 00:01:33;;;;;;;2.65;1.40;;;20.60;79.30;;;;;;5068082;28;20029;-61
2023/07/29 00:03:59;;;;;;;1.30;1.20;;;20.60;79.40;;;;;;5076356;28;20081;-61
2023/07/29 00:06:24;;;;;;;1.52;1.30;;;20.60;79.40;;;;;;5070016;28;20418;-61
2023/07/29 00:08:50;;;;;;;1.98;1.52;;;20.60;79.40;;;;;;5078245;28;20032;-59
2023/07/29 00:11:16;;;;;;;1.95;1.00;;;20.50;79.40;;;;;;5079915;28;20028;-60
2023/07/29 00:13:41;;;;;;;1.27;1.00;;;20.50;79.40;;;;;;5076752;28;20556;-61
2023/07/29 00:16:07;;;;;;;2.85;1.20;;;20.40;79.40;;;;;;5071905;28;20040;-60
2023/07/29 00:18:33;;;;;;;1.85;1.30;;;20.40;79.40;;;;;;5073755;28;20480;-59
2023/07/29 00:20:58;;;;;;;1.48;1.00;;;20.40;79.50;;;;;;5072039;28;20021;-60
2023/07/29 00:23:24;;;;;;;2.20;1.40;;;20.40;79.60;;;;;;5080734;28;20036;-60
2023/07/29 00:25:50;;;;;;;1.52;1.15;;;20.40;79.60;;;;;;5080517;28;20414;-60
2023/07/29 00:28:16;;;;;;;2.33;1.25;;;20.30;79.70;;;;;;5072571;28;20028;-60
2023/07/29 00:30:41;;;;;;;1.33;1.10;;;20.30;79.50;;;;;;5073211;28;20042;-59
2023/07/29 00:33:07;;;;;;;1.52;1.10;;;20.30;79.50;;;;;;5076078;28;20041;-60
2023/07/29 00:35:34;;;;;;;1.70;1.15;;;20.30;79.40;;;;;;5073856;28;20119;-60
2023/07/29 00:38:00;;;;;;;1.45;1.33;;;20.30;79.40;;;;;;5076471;28;20024;-61
2023/07/29 00:40:28;;;;;;;3.40;1.35;;;20.30;79.40;;;;;;5075929;28;20090;-59
2023/07/29 00:42:54;;;;;;;1.65;0.90;;;20.20;79.30;;;;;;5078846;28;20027;-60
2023/07/29 00:45:20;;;;;;;1.83;1.50;;;20.20;79.40;;;;;;5079903;28;20402;-61
2023/07/29 00:47:46;;;;;;;1.38;0.90;;;20.20;79.50;;;;;;5082855;28;20056;-60
2023/07/29 00:50:14;;;;;;;1.80;1.50;;;20.20;79.50;;;;;;5080965;28;20079;-61
2023/07/29 00:52:40;;;;;;;1.73;1.08;;;20.20;79.40;;;;;;5079833;28;20160;-61
2023/07/29 00:55:07;;;;;;;1.00;0.80;;;20.10;79.40;;;;;;5074768;28;20191;-61
2023/07/29 00:57:33;;;;;;;0.95;0.75;;;20.10;79.30;;;;;;5074826;28;20024;-61
2023/07/29 01:00:00;;;;;;;1.02;0.70;;;20.10;79.30;;;;;;5078530;28;20042;-60
2023/07/29 01:02:26;;;;;;;0.73;0.73;;;20.10;79.30;;;;;;5089567;28;20020;-61
2023/07/29 01:04:54;;;;;;;1.35;1.25;;;20.10;79.30;;;;;;5072001;28;20052;-61
2023/07/29 01:07:30;;;;;;;0.80;0.70;;;20.10;79.20;;;;;;5073932;28;20028;-61
2023/07/29 01:10:24;;;;;;;2.15;1.00;;;20.00;79.30;;;;;;5076841;28;20386;-61
2023/07/29 01:12:55;;;;;;;0.85;0.80;;;20.00;79.40;;;;;;5074582;28;20437;-61
2023/07/29 01:15:48;;;;;;;1.75;1.02;;;20.00;79.40;;;;;;5080454;28;20536;-61
2023/07/29 01:18:32;;;;;;;1.40;0.95;;;20.00;79.40;;;;;;5074787;28;20441;-61
2023/07/29 01:21:02;;;;;;;0.90;0.85;;;20.10;79.50;;;;;;5078960;28;20016;-61
2023/07/29 01:23:32;;;;;;;0.60;0.60;;;20.10;79.70;;;;;;5073691;28;20039;-60
2023/07/29 01:25:58;;;;;;;0.88;0.77;;;20.10;79.80;;;;;;5074317;28;20482;-61
2023/07/29 01:28:24;;;;;;;1.33;0.82;;;20.10;79.70;;;;;;5072225;28;20071;-60
2023/07/29 01:30:54;;;;;;;1.10;0.60;;;20.20;79.80;;;;;;5085879;28;20036;-61
2023/07/29 01:33:30;;;;;;;0.50;0.50;;;20.20;79.90;;;;;;5077354;28;20111;-60
2023/07/29 01:36:02;;;;;;;0.95;0.80;;;20.20;80.00;;;;;;5073809;28;20048;-61
2023/07/29 01:38:38;;;;;;;1.33;1.23;;;20.20;80.00;;;;;;5078171;28;20028;-61
2023/07/29 01:41:07;;;;;;;1.20;1.05;;;20.20;80.00;;;;;;5075507;28;20028;-60
2023/07/29 01:43:33;;;;;;;0.77;0.63;;;20.20;80.10;;;;;;5071554;28;20056;-61
2023/07/29 01:46:00;;;;;;;2.15;0.55;;;20.20;80.10;;;;;;5081137;28;20464;-60
2023/07/29 01:48:28;;;;;;;0.82;0.60;;;20.20;80.10;;;;;;5082679;28;20042;-60
2023/07/29 01:50:54;;;;;;;1.30;1.17;;;20.20;80.30;;;;;;5075074;28;20135;-61
2023/07/29 01:53:20;;;;;;;0.70;0.70;;;20.20;80.30;;;;;;5082960;28;20161;-60
2023/07/29 01:55:45;;;;;;;1.58;0.88;;;20.20;80.40;;;;;;5077098;28;20047;-59
2023/07/29 01:58:11;;;;;;;0.65;0.52;;;20.10;80.50;;;;;;5073339;28;20486;-61
2023/07/29 02:00:37;;;;;;;0.68;0.65;;;20.20;80.50;;;;;;5082711;28;20017;-59
2023/07/29 02:03:03;;;;;;;1.15;0.70;;;20.20;80.60;;;;;;5070906;28;20028;-60
2023/07/29 02:05:28;;;;;;;0.75;0.75;;;20.20;80.70;;;;;;5082453;28;20101;-61
2023/07/29 02:07:54;;;;;;;1.38;0.90;;;20.30;80.70;;;;;;5074776;28;20502;-60
2023/07/29 02:10:20;;;;;;;0.98;0.80;;;20.30;80.70;;;;;;5081091;28;20123;-60
2023/07/29 02:12:45;;;;;;;0.98;0.85;;;20.30;80.70;;;;;;5071620;28;20024;-60
2023/07/29 02:15:11;;;;;;;1.20;0.70;;;20.30;80.70;;;;;;5077100;28;20036;-60
2023/07/29 02:17:37;;;;;;;1.08;0.98;;;20.30;80.80;;;;;;5081374;28;20029;-61
2023/07/29 02:20:04;;;;;;;1.27;0.75;;;20.30;80.90;;;;;;5077463;28;20081;-60
2023/07/29 02:22:30;;;;;;;1.05;0.68;;;20.30;81.00;;;;;;5083030;28;20101;-60
2023/07/29 02:24:55;;;;;;;1.30;1.00;;;20.30;81.10;;;;;;5077312;28;20020;-60
2023/07/29 02:27:21;;;;;;;0.95;0.88;;;20.30;81.00;;;;;;5079552;28;20032;-60
2023/07/29 02:29:47;;;;;;;2.15;0.80;;;20.30;81.10;;;;;;5083227;28;20016;-61
2023/07/29 02:32:13;;;;;;;1.83;0.70;;;20.30;81.10;;;;;;5078489;28;20388;-60
2023/07/29 02:34:38;;;;;;;0.75;0.75;;;20.30;81.20;;;;;;5083766;28;20030;-61
2023/07/29 02:37:04;;;;;;;2.90;1.33;;;20.40;81.20;;;;;;5076177;28;20028;-60
2023/07/29 02:39:30;;;;;;;1.35;0.90;;;20.40;81.20;;;;;;5083596;28;20031;-61
2023/07/29 02:41:58;;;;;;;1.00;0.90;;;20.40;81.20;;;;;;5075205;28;20496;-61
2023/07/29 02:44:23;;;;;;;0.40;0.40;;;20.40;81.10;;;;;;5077291;28;20034;-61
2023/07/29 02:46:49;;;;;;;0.57;0.57;;;20.50;81.10;;;;;;5081250;28;20040;-61
2023/07/29 02:49:15;;;;;;;0.80;0.80;;;20.50;81.20;;;;;;5081824;28;20028;-61
2023/07/29 02:51:40;;;;;;;0.85;0.77;;;20.50;81.20;;;;;;5076494;28;20089;-61
2023/07/29 02:54:06;;;;;;;0.85;0.82;;;20.50;81.20;;;;;;5079982;28;20028;-61
2023/07/29 02:56:32;;;;;;;1.25;0.80;;;20.50;81.30;;;;;;5082438;28;20523;-59
2023/07/29 02:58:58;;;;;;;1.77;1.50;;;20.50;81.40;;;;;;5079964;28;20032;-59
2023/07/29 03:01:25;;;;;;;2.83;1.27;;;20.40;81.80;;;;;;5078788;28;20020;-60
2023/07/29 03:03:51;;;;;;;2.42;1.27;;;20.40;82.00;;;;;;5076459;28;20107;-61
2023/07/29 03:06:16;;;;;;;1.33;1.10;;;20.40;82.20;;;;;;5077848;28;20543;-59
2023/07/29 03:08:42;;;;;;;2.00;1.20;;;20.40;82.20;;;;;;5079932;28;20038;-59
2023/07/29 03:11:10;;;;;;;1.95;1.40;;;20.50;82.30;;;;;;5079815;28;20032;-61
2023/07/29 03:13:36;;;;;;;2.47;1.33;;;20.50;82.20;;;;;;5079405;28;20020;-60
2023/07/29 03:16:05;;;;;;;1.30;0.88;;;20.50;82.10;;;;;;5074348;28;20434;-61
2023/07/29 03:18:31;;;;;;;1.10;1.00;;;20.50;82.10;;;;;;5074813;28;20064;-60
2023/07/29 03:20:57;;;;;;;2.58;1.35;;;20.50;82.70;;;;;;5076279;28;20056;-61
2023/07/29 03:23:22;;;;;;;2.08;1.42;;;20.50;82.20;;;;;;5072818;28;20035;-60
2023/07/29 03:25:51;;;;;;;1.60;0.90;;;20.50;82.10;;;;;;5077681;28;20024;-60
2023/07/29 03:28:17;;;;;;;2.53;1.63;;;20.50;82.10;;;;;;5073799;28;20036;-61
2023/07/29 03:30:42;;;;;;;2.88;1.63;;;20.60;82.30;;;;;;5080996;28;20036;-61
2023/07/29 03:33:08;;;;;;;1.80;1.13;;;20.50;82.30;;;;;;5073067;28;20439;-61
2023/07/29 03:35:33;;;;;;;2.22;1.52;;;20.50;82.30;;;;;;5074626;28;20053;-61
2023/07/29 03:37:59;;;;;;;1.55;1.10;;;20.50;82.30;;;;;;5078081;28;20472;-61
2023/07/29 03:40:25;;;;;;;1.65;1.30;;;20.50;82.40;;;;;;5075617;28;20057;-61
2023/07/29 03:42:50;;;;;;;2.03;1.40;;;20.50;82.30;;;;;;5068124;28;20116;-60
2023/07/29 03:45:16;;;;;;;1.73;1.25;;;20.50;82.30;;;;;;5064372;28;20142;-60
2023/07/29 03:47:42;;;;;;;2.55;1.98;;;20.50;82.20;;;;;;5072489;28;20033;-61
2023/07/29 03:50:08;;;;;;;1.70;1.45;;;20.50;82.20;;;;;;5077295;28;20429;-61
2023/07/29 03:52:34;;;;;;;1.30;1.20;;;20.50;82.30;;;;;;5078782;28;20479;-61
2023/07/29 03:54:59;;;;;;;2.40;1.77;;;20.40;82.20;;;;;;5080216;28;20031;-61
2023/07/29 03:57:25;;;;;;;1.30;1.20;;;20.40;82.30;;;;;;5078645;28;20115;-61
2023/07/29 03:59:50;;;;;;;1.00;0.90;;;20.40;82.30;;;;;;5075403;28;20055;-60
2023/07/29 04:02:16;;;;;;;1.80;1.13;;;20.40;82.40;;;;;;5074781;28;20081;-61
2023/07/29 04:04:44;;;;;;;1.45;1.13;;;20.30;82.30;;;;;;5079218;28;20021;-61
2023/07/29 04:07:09;;;;;;;1.40;0.98;;;20.30;82.30;;;;;;5072322;28;20035;-60
2023/07/29 04:09:35;;;;;;;4.25;1.35;;;20.30;82.20;;;;;;5078851;28;20119;-61
2023/07/29 04:12:01;;;;;;;1.17;0.80;;;20.30;82.10;;;;;;5076075;28;20043;-60
2023/07/29 04:14:27;;;;;;;1.05;0.85;;;20.30;82.00;;;;;;5069009;28;20028;-62
2023/07/29 04:16:52;;;;;;;1.33;0.93;;;20.30;82.10;;;;;;5074804;28;20028;-62
2023/07/29 04:19:18;;;;;;;1.45;0.90;;;20.30;82.00;;;;;;5077042;28;20090;-62
2023/07/29 04:21:44;;;;;;;2.70;1.50;;;20.30;82.00;;;;;;5080547;28;20028;-61
2023/07/29 04:24:09;;;;;;;1.48;1.05;;;20.30;82.00;;;;;;5079839;28;20028;-60
2023/07/29 04:26:35;;;;;;;2.03;0.95;;;20.20;81.90;;;;;;5088291;28;20058;-61
2023/07/29 04:29:01;;;;;;;0.90;0.90;;;20.20;82.00;;;;;;5074110;28;20115;-60
2023/07/29 04:31:26;;;;;;;1.77;1.25;;;20.20;81.90;;;;;;5086716;28;20071;-61
2023/07/29 04:33:55;;;;;;;1.02;0.90;;;20.20;81.80;;;;;;5081158;28;20068;-61
2023/07/29 04:36:20;;;;;;;0.57;0.57;;;20.20;81.80;;;;;;5072539;28;20059;-62
2023/07/29 04:38:46;;;;;;;3.17;1.45;;;20.10;81.70;;;;;;5081881;28;20056;-60
2023/07/29 04:41:12;;;;;;;1.02;0.90;;;20.10;81.70;;;;;;5082860;28;20032;-62
2023/07/29 04:43:37;;;;;;;1.25;0.93;;;20.10;81.70;;;;;;5076517;28;20373;-60
2023/07/29 04:46:07;;;;;;;0.40;0.40;;;20.10;81.60;;;;;;5079256;28;20099;-61
2023/07/29 04:48:33;;;;;;;1.10;0.70;;;20.10;81.60;;;;;;5077420;28;20043;-60
2023/07/29 04:50:58;;;;;;;0.98;0.77;;;20.10;81.50;;;;;;5074813;28;20028;-62
2023/07/29 04:53:24;;;;;;;1.10;0.60;;;20.10;81.50;;;;;;5075647;28;20032;-61
2023/07/29 04:55:50;;;;;;;0.98;0.60;;;20.10;81.40;;;;;;5079753;28;20035;-61
2023/07/29 04:58:15;;;;;;;2.28;0.68;;;20.10;81.30;;;;;;5078565;28;20036;-61
2023/07/29 05:00:41;;;;;;;0.70;0.70;;;20.10;81.30;;;;;;5080519;28;20023;-61
2023/07/29 05:03:07;;;;;;;0.63;0.63;;;20.10;81.30;;;;;;5079299;28;20108;-61
2023/07/29 05:05:33;;;;;;;2.10;0.55;;;20.10;81.30;;;;;;5077271;28;20032;-61
2023/07/29 05:07:58;;;;;;;1.45;0.90;;;20.10;81.30;;;;;;5074181;28;20028;-61
2023/07/29 05:10:24;;;;;;;1.92;1.00;;;20.10;81.20;;;;;;5078105;28;20031;-61
2023/07/29 05:12:50;;;;;;;0.60;0.60;;;20.00;81.10;;;;;;5075472;28;20050;-61
2023/07/29 05:15:16;;;;;;;0.68;0.60;;;20.10;81.20;;;;;;5071249;28;20069;-61
2023/07/29 05:17:41;;;;;;;0.77;0.75;;;20.10;81.10;;;;;;5075873;28;20071;-62
2023/07/29 05:20:07;;;;;;;1.17;0.93;;;20.10;80.90;;;;;;5071657;28;20043;-61
2023/07/29 05:22:33;;;;;;;1.98;0.95;;;20.10;80.70;;;;;;5066806;28;20029;-61
2023/07/29 05:24:59;;;;;;;1.83;0.70;;;20.10;80.50;;;;;;5075998;28;20024;-61
2023/07/29 05:27:24;;;;;;;1.70;0.90;;;20.10;80.50;;;;;;5064513;28;20025;-61
2023/07/29 05:29:50;;;;;;;0.45;0.45;;;20.00;80.30;;;;;;5069892;28;20361;-61
2023/07/29 05:32:16;;;;;;;2.05;1.02;;;20.00;80.20;;;;;;5071403;28;20491;-61
2023/07/29 05:34:42;;;;;;;0.77;0.70;;;20.00;80.20;;;;;;5079115;28;20032;-61
2023/07/29 05:37:07;;;;;;;0.63;0.60;;;20.10;80.20;;;;;;5072573;28;20031;-60
2023/07/29 05:39:33;;;;;;;1.48;0.77;;;20.10;80.00;;;;;;5076963;28;20037;-60
2023/07/29 05:42:02;;;;;;;1.13;0.80;;;20.10;79.30;;;;;;5073986;28;20443;-60
2023/07/29 05:44:28;;;;;;;0.75;0.60;;;20.00;79.10;;;;;;5069194;28;20113;-61
2023/07/29 05:46:53;;;;;;;0.63;0.63;;;20.00;80.00;;;;;;5080047;28;20111;-61
2023/07/29 05:49:19;;;;;;;0.60;0.60;;;20.00;79.30;;;;;;5089085;28;20028;-61
2023/07/29 05:51:45;;;;;;;0.80;0.80;;;20.00;79.10;;;;;;5069907;28;20063;-61
2023/07/29 05:54:10;;;;;;;1.00;0.90;;;20.00;79.10;;;;;;5067397;28;20406;-61
2023/07/29 05:56:36;;;;;;;1.17;0.93;;;20.00;79.20;;;;;;5079395;28;20041;-61
2023/07/29 05:59:02;;;;;;;0.98;0.80;;;20.00;79.20;;;;;;5077174;28;20039;-62
2023/07/29 06:01:27;;;;;;;1.55;0.77;;;20.00;79.10;;;;;;5066920;28;20667;-61
2023/07/29 06:03:53;;;;;;;0.70;0.70;;;20.10;79.00;;;;;;5067776;28;20036;-61
2023/07/29 06:06:18;;;;;;;1.30;1.13;;;20.10;79.00;;;;;;5075535;28;20028;-61
2023/07/29 06:08:44;;;;;;;0.90;0.82;;;20.10;79.00;;;;;;5071298;28;20141;-62
2023/07/29 06:11:10;;;;;;;1.17;0.90;;;20.10;78.70;;;;;;5075969;28;20110;-62
2023/07/29 06:13:35;;;;;;;1.00;0.80;;;20.00;78.60;;;;;;5082899;28;20461;-62
2023/07/29 06:16:01;;;;;;;1.05;0.88;;;20.10;78.70;;;;;;5078853;28;20024;-62
2023/07/29 06:18:27;;;;;;;1.25;1.00;;;20.10;78.60;;;;;;5073671;28;20031;-63
2023/07/29 06:20:52;;;;;;;1.13;1.00;;;20.20;78.40;;;;;;5081347;28;20112;-63
2023/07/29 06:23:18;;;;;;;2.67;1.10;;;20.20;78.40;;;;;;5069013;28;20038;-61
2023/07/29 06:25:43;;;;;;;0.93;0.80;;;20.20;78.30;;;;;;5076539;28;20059;-61
2023/07/29 06:28:10;;;;;;;2.40;1.13;;;20.20;78.20;;;;;;5077421;28;20588;-62
2023/07/29 06:30:35;;;;;;;1.20;1.10;;;20.30;78.20;;;;;;5073577;28;20062;-61
2023/07/29 06:33:03;;;;;;;2.47;1.70;;;20.30;78.00;;;;;;5077271;28;20076;-61
2023/07/29 06:35:29;;;;;;;1.33;1.23;;;20.40;77.60;;;;;;5075490;28;20063;-61
2023/07/29 06:37:55;;;;;;;1.80;1.02;;;20.30;77.60;;;;;;5072903;28;20114;-60
2023/07/29 06:40:20;;;;;;;1.08;0.90;;;20.40;77.70;;;;;;5073939;28;20037;-61
2023/07/29 06:42:46;;;;;;;3.17;1.65;;;20.50;77.70;;;;;;5076307;28;20016;-60
2023/07/29 06:45:12;;;;;;;1.65;1.23;;;20.60;77.30;;;;;;5073363;28;20533;-61
2023/07/29 06:47:38;;;;;;;1.42;1.10;;;20.70;77.20;;;;;;5077087;28;20531;-60
2023/07/29 06:50:04;;;;;;;1.50;1.08;;;20.80;76.90;;;;;;5077900;28;20029;-61
2023/07/29 06:52:29;;;;;;;1.27;1.00;;;20.80;76.70;;;;;;5077661;28;20077;-61
2023/07/29 06:54:55;;;;;;;1.45;0.98;;;20.80;76.70;;;;;;5075563;28;20442;-61
2023/07/29 06:57:21;;;;;;;2.60;1.67;;;20.80;76.90;;;;;;5076204;28;20028;-61
2023/07/29 06:59:46;;;;;;;1.17;1.08;;;20.90;76.80;;;;;;5077298;28;20068;-61
2023/07/29 07:02:12;;;;;;;3.05;1.05;;;21.10;76.80;;;;;;5075643;28;20032;-61
2023/07/29 07:04:38;;;;;;;2.58;1.02;;;21.30;76.50;;;;;;5081520;28;20028;-62
2023/07/29 07:07:04;;;;;;;1.05;0.93;;;21.40;76.20;;;;;;5074021;28;20032;-61
2023/07/29 07:09:29;;;;;;;2.47;1.27;;;21.40;76.70;;;;;;5069734;28;20028;-61
2023/07/29 07:11:55;;;;;;;2.40;1.10;;;21.40;76.10;;;;;;5073420;28;20033;-62
2023/07/29 07:14:20;;;;;;;1.73;1.17;;;21.40;75.50;;;;;;5075633;28;20066;-62
2023/07/29 07:16:46;;;;;;;1.75;1.20;;;21.30;75.80;;;;;;5080356;28;20032;-61
2023/07/29 07:19:12;;;;;;;2.08;1.30;;;21.30;75.80;;;;;;5070742;28;20039;-62
2023/07/29 07:21:37;;;;;;;0.90;0.85;;;21.30;75.90;;;;;;5077823;28;20024;-61
2023/07/29 07:24:03;;;;;;;2.70;0.98;;;21.40;76.00;;;;;;5076714;28;20031;-62
2023/07/29 07:26:29;;;;;;;1.67;1.25;;;21.50;75.70;;;;;;5081276;28;20037;-61
2023/07/29 07:28:54;;;;;;;1.92;1.00;;;21.60;75.50;;;;;;5075149;28;20036;-61
2023/07/29 07:31:20;;;;;;;1.65;1.20;;;21.60;75.50;;;;;;5078807;28;20403;-61
2023/07/29 07:33:46;;;;;;;1.83;1.60;;;21.60;75.50;;;;;;5073740;28;20514;-61
2023/07/29 07:36:11;;;;;;;5.60;2.00;;;21.70;75.30;;;;;;5074581;28;20725;-62
2023/07/29 07:38:37;;;;;;;1.40;1.08;;;21.60;75.30;;;;;;5079588;28;20558;-62
2023/07/29 07:41:03;;;;;;;1.88;1.13;;;21.50;75.20;;;;;;5068354;28;20079;-62
2023/07/29 07:43:28;;;;;;;2.63;1.73;;;21.40;75.50;;;;;;5072872;28;20037;-62
2023/07/29 07:45:59;;;;;;;1.83;1.48;;;21.40;75.40;;;;;;5070636;28;20039;-61
2023/07/29 07:48:25;;;;;;;1.20;1.10;;;21.40;75.70;;;;;;5066235;28;20036;-61
2023/07/29 07:50:51;;;;;;;2.15;1.70;;;21.40;75.70;;;;;;5071516;28;20017;-61
2023/07/29 07:53:16;;;;;;;2.45;1.50;;;21.50;75.50;;;;;;5068386;28;20033;-61
2023/07/29 07:55:42;;;;;;;2.30;1.60;;;21.50;75.30;;;;;;5067070;28;20064;-61
2023/07/29 07:58:08;;;;;;;1.90;1.55;;;21.40;75.50;;;;;;5077143;28;20039;-61
2023/07/29 08:00:33;;;;;;;1.35;1.25;;;21.40;75.50;;;;;;5061390;28;20483;-61
2023/07/29 08:02:59;;;;;;;1.55;1.33;;;21.30;75.80;;;;;;5066781;28;20074;-60
2023/07/29 08:05:25;;;;;;;1.65;1.23;;;21.30;76.10;;;;;;5080879;28;20031;-60
2023/07/29 08:07:51;;;;;;;3.42;1.27;;;21.40;76.20;;;;;;5081177;28;20501;-61
2023/07/29 08:10:16;;;;;;;8.85;2.08;;;21.50;76.00;;;;;;5073998;28;20078;-60
2023/07/29 08:12:42;;;;;;;2.60;1.90;;;21.60;75.30;;;;;;5069835;28;20109;-60
2023/07/29 08:15:08;;;;;;;2.30;1.58;;;21.50;75.40;;;;;;5072928;28;20036;-60
2023/07/29 08:17:33;;;;;;;1.42;0.95;;;21.40;75.60;;;;;;5068184;28;20036;-61
2023/07/29 08:19:59;;;;;;;1.98;1.45;;;21.40;75.90;;;;;;5074173;28;20052;-61
2023/07/29 08:22:25;;;;;;;2.22;1.55;;;21.30;76.10;;;;;;5073814;28;20025;-60
2023/07/29 08:24:50;;;;;;;1.45;1.25;;;21.30;76.20;;;;;;5073907;28;20078;-60
2023/07/29 08:27:16;;;;;;;1.15;0.93;;;21.40;76.30;;;;;;5075704;28;20104;-61
2023/07/29 08:29:42;;;;;;;1.70;1.50;;;21.50;76.20;;;;;;5075177;28;20032;-61
2023/07/29 08:32:07;;;;;;;1.60;1.50;;;21.50;76.10;;;;;;5069383;28;20084;-61
2023/07/29 08:34:33;;;;;;;1.23;1.08;;;21.50;75.90;;;;;;5077178;28;20029;-61
2023/07/29 08:36:59;;;;;;;1.20;1.10;;;21.60;76.00;;;;;;5073813;28;20043;-62
2023/07/29 08:39:25;;;;;;;0.70;0.70;;;21.60;76.00;;;;;;5076318;28;20036;-61
2023/07/29 08:42:08;;;;;;;1.20;1.10;;;21.60;75.90;;;;;;5073583;28;20079;-61
2023/07/29 08:44:44;;;;;;;1.23;1.15;;;21.60;76.00;;;;;;5064501;28;20029;-61
2023/07/29 08:47:13;;;;;;;1.08;1.05;;;21.60;75.80;;;;;;5079672;28;20095;-61
2023/07/29 08:49:39;;;;;;;1.30;1.10;;;21.60;76.00;;;;;;5071400;28;20036;-61
2023/07/29 08:52:06;;;;;;;2.15;1.83;;;21.50;76.10;;;;;;5077302;28;20386;-61
2023/07/29 08:54:32;;;;;;;0.90;0.90;;;21.50;76.10;;;;;;5077635;28;20044;-61
2023/07/29 08:56:58;;;;;;;3.70;1.17;;;21.50;76.10;;;;;;5071105;28;20388;-61
2023/07/29 08:59:25;;;;;;;2.30;1.00;;;21.50;75.90;;;;;;5077489;28;20036;-61
2023/07/29 09:01:55;;;;;;;1.33;1.17;;;21.70;76.00;;;;;;5077673;28;20368;-61
2023/07/29 09:04:21;;;;;;;1.27;1.00;;;21.90;75.80;;;;;;5079396;28;20082;-61
2023/07/29 09:06:47;;;;;;;1.42;1.10;;;22.10;75.30;;;;;;5076498;28;20046;-61
2023/07/29 09:09:13;;;;;;;1.23;1.10;;;22.30;74.50;;;;;;5078098;28;20066;-61
2023/07/29 09:11:39;;;;;;;0.70;0.70;;;22.30;73.90;;;;;;5078136;28;20055;-61
2023/07/29 09:14:04;;;;;;;1.00;0.90;;;22.20;73.90;;;;;;5080971;28;20518;-62
2023/07/29 09:16:31;;;;;;;1.80;1.17;;;22.20;74.00;;;;;;5082638;28;20505;-61
2023/07/29 09:19:01;;;;;;;1.33;0.95;;;22.20;74.20;;;;;;5078478;28;20490;-61
2023/07/29 09:21:28;;;;;;;0.88;0.80;;;22.20;73.80;;;;;;5085070;28;20404;-61
2023/07/29 09:23:54;;;;;;;0.75;0.73;;;22.20;73.90;;;;;;5078521;28;20111;-62
2023/07/29 09:26:24;;;;;;;0.70;0.70;;;22.20;73.90;;;;;;5074189;28;20032;-61
2023/07/29 09:28:55;;;;;;;0.70;0.70;;;22.20;74.00;;;;;;5076391;28;20103;-61
2023/07/29 09:31:22;;;;;;;0.70;0.70;;;22.20;74.00;;;;;;5075362;28;20129;-61
2023/07/29 09:33:49;;;;;;;0.70;0.70;;;22.20;74.00;;;;;;5077559;28;20032;-62
2023/07/29 09:36:15;;;;;;;1.00;0.90;;;22.30;73.90;;;;;;5085222;28;20056;-61
2023/07/29 09:38:41;;;;;;;1.05;0.95;;;22.30;72.70;;;;;;5078637;28;20028;-61
2023/07/29 09:41:07;;;;;;;1.60;0.85;;;22.40;73.00;;;;;;5078061;28;20510;-61
2023/07/29 09:43:34;;;;;;;1.30;0.70;;;22.40;72.40;;;;;;5079346;28;20063;-60
2023/07/29 09:46:04;;;;;;;1.75;0.65;;;22.50;72.50;;;;;;5081332;28;20055;-61
2023/07/29 09:48:38;;;;;;;0.93;0.77;;;22.60;72.50;;;;;;5077678;28;20052;-61
2023/07/29 09:51:11;;;;;;;1.20;1.10;;;22.90;71.80;;;;;;5076440;28;20062;-62
2023/07/29 09:53:46;;;;;;;1.70;0.75;;;22.90;70.60;;;;;;5076232;28;20043;-62
2023/07/29 09:56:13;;;;;;;0.90;0.90;;;23.00;71.00;;;;;;5074029;28;20070;-61
2023/07/29 09:58:39;;;;;;;0.80;0.60;;;23.10;69.70;;;;;;5077683;28;20025;-62
2023/07/29 10:01:06;;;;;;;3.58;0.70;;;23.30;70.00;;;;;;5070996;28;20032;-61
2023/07/29 10:03:33;;;;;;;1.08;0.90;;;23.40;69.70;;;;;;5077026;28;20032;-62
2023/07/29 10:06:03;;;;;;;4.00;0.85;;;23.60;69.40;;;;;;5077180;28;20063;-61
2023/07/29 10:08:35;;;;;;;1.48;0.90;;;23.80;68.70;;;;;;5074226;28;20043;-61
2023/07/29 10:11:02;;;;;;;0.70;0.70;;;24.00;69.10;;;;;;5076071;28;20028;-61
2023/07/29 10:13:28;;;;;;;0.90;0.90;;;24.10;68.20;;;;;;5073450;28;20382;-61
2023/07/29 10:15:55;;;;;;;0.60;0.57;;;24.10;68.30;;;;;;5071881;28;20020;-61
2023/07/29 10:18:23;;;;;;;2.58;0.93;;;24.10;68.50;;;;;;5086200;28;20101;-61
2023/07/29 10:20:51;;;;;;;2.00;0.90;;;24.20;68.90;;;;;;5078715;28;20104;-61
2023/07/29 10:23:18;;;;;;;1.05;0.80;;;24.50;68.30;;;;;;5082185;28;20036;-62
2023/07/29 10:25:49;;;;;;;0.80;0.80;;;24.60;67.60;;;;;;5080692;28;20074;-62
2023/07/29 10:28:18;;;;;;;0.70;0.70;;;24.80;67.90;;;;;;5076200;28;20036;-62
2023/07/29 10:30:44;;;;;;;1.00;0.88;;;25.10;67.40;;;;;;5079926;28;20029;-61
2023/07/29 10:33:10;;;;;;;0.52;0.50;;;25.10;66.20;;;;;;5082434;28;20044;-61
2023/07/29 10:35:37;;;;;;;0.40;0.40;;;25.00;66.40;;;;;;5074298;28;20040;-61
2023/07/29 10:38:04;;;;;;;0.70;0.65;;;25.00;66.30;;;;;;5075462;28;20040;-61
2023/07/29 10:40:50;;;;;;;1.70;0.73;;;25.10;66.00;;;;;;5072134;28;20039;-61
2023/07/29 10:43:34;;;;;;;0.52;0.52;;;25.30;64.80;;;;;;5080611;28;20174;-61
2023/07/29 10:46:20;;;;;;;0.43;0.43;;;25.20;64.90;;;;;;5066368;28;20107;-61
2023/07/29 10:48:55;;;;;;;0.60;0.60;;;25.10;64.80;;;;;;5074576;28;20040;-61
2023/07/29 10:51:37;;;;;;;0.52;0.52;;;24.90;65.30;;;;;;5077134;28;20039;-61
2023/07/29 10:54:16;;;;;;;0.60;0.60;;;24.90;65.50;;;;;;5075834;28;20471;-61
2023/07/29 10:56:46;;;;;;;0.82;0.82;;;25.00;65.80;;;;;;5075391;28;20035;-61
2023/07/29 10:59:12;;;;;;;1.45;0.90;;;25.00;65.90;;;;;;5076516;28;20036;-61
2023/07/29 11:01:39;;;;;;;0.73;0.70;;;24.90;66.00;;;;;;5071996;28;20550;-60
2023/07/29 11:04:20;;;;;;;1.20;1.10;;;24.90;66.00;;;;;;5072679;28;20036;-60
2023/07/29 11:07:04;;;;;;;1.05;1.02;;;24.90;65.70;;;;;;5072803;28;20021;-61
2023/07/29 11:09:49;;;;;;;1.17;1.08;;;24.80;65.30;;;;;;5079597;28;20047;-61
2023/07/29 11:12:42;;;;;;;1.10;0.93;;;24.70;65.70;;;;;;5080340;28;20028;-61
2023/07/29 11:15:11;;;;;;;2.05;1.33;;;24.60;65.40;;;;;;5083364;28;20475;-61
2023/07/29 11:17:57;;;;;;;0.98;0.98;;;24.50;65.60;;;;;;5080114;28;20028;-61
2023/07/29 11:20:28;;;;;;;1.00;0.90;;;24.60;66.20;;;;;;5073536;28;20017;-60
2023/07/29 11:22:55;;;;;;;2.85;1.02;;;24.60;65.80;;;;;;5076918;28;20028;-61
2023/07/29 11:25:23;;;;;;;0.80;0.80;;;24.60;66.20;;;;;;5077051;28;20033;-60
2023/07/29 11:27:51;;;;;;;0.95;0.80;;;24.50;66.10;;;;;;5080870;28;20040;-61
2023/07/29 11:30:16;;;;;;;0.73;0.73;;;24.40;66.50;;;;;;5080693;28;20020;-61
2023/07/29 11:32:44;;;;;;;0.75;0.68;;;24.30;67.00;;;;;;5074608;28;20040;-61
2023/07/29 11:35:15;;;;;;;0.65;0.65;;;24.20;67.00;;;;;;5075032;28;20167;-61
2023/07/29 11:37:44;;;;;;;0.60;0.60;;;24.10;67.40;;;;;;5072942;28;20105;-60
2023/07/29 11:40:17;;;;;;;1.13;1.05;;;24.00;67.80;;;;;;5070471;28;20219;-61
2023/07/29 11:42:44;;;;;;;1.05;0.95;;;23.90;68.10;;;;;;5071966;28;20028;-60
2023/07/29 11:45:10;;;;;;;1.10;0.70;;;23.90;68.30;;;;;;5071119;28;20036;-59
2023/07/29 11:47:36;;;;;;;0.60;0.60;;;23.80;68.30;;;;;;5071567;28;20033;-61
2023/07/29 11:50:09;;;;;;;0.63;0.60;;;23.70;68.30;;;;;;5065925;28;20024;-60
2023/07/29 11:52:36;;;;;;;1.17;0.77;;;23.70;68.50;;;;;;5082681;28;20494;-60
2023/07/29 11:55:03;;;;;;;0.70;0.70;;;23.60;68.80;;;;;;5078372;28;20058;-60
2023/07/29 11:57:38;;;;;;;1.30;1.00;;;23.50;68.90;;;;;;5076183;28;20028;-60
2023/07/29 12:00:06;;;;;;;0.60;0.60;;;23.40;68.90;;;;;;5073627;28;20032;-60
2023/07/29 12:02:35;;;;;;;0.50;0.50;;;23.30;69.20;;;;;;5073950;28;20036;-60
2023/07/29 12:05:01;;;;;;;0.80;0.80;;;23.30;69.70;;;;;;5074334;28;20028;-61
2023/07/29 12:07:27;;;;;;;0.80;0.80;;;23.10;70.30;;;;;;5076593;28;20031;-60
2023/07/29 12:09:54;;;;;;;0.60;0.60;;;23.00;70.90;;;;;;5077951;28;20107;-61
2023/07/29 12:12:22;;;;;;;0.57;0.57;;;22.90;71.80;;;;;;5074997;28;20534;-61
2023/07/29 12:14:49;;;;;;;0.82;0.55;;;22.70;72.40;;;;;;5070962;28;20036;-61
2023/07/29 12:17:14;;;;;;;0.55;0.45;;;22.50;72.70;;;;;;5070585;28;20387;-60
2023/07/29 12:19:41;;;;;;;0.73;0.50;;;22.40;73.30;;;;;;5071823;28;20063;-61
2023/07/29 12:22:09;;;;;;;0.40;0.40;;;22.20;73.90;;;;;;5077648;28;20035;-61
2023/07/29 12:24:40;;;;;;;0.60;0.60;;;22.00;74.40;;;;;;5060892;28;20029;-61
2023/07/29 12:27:12;;;;;;;0.60;0.60;;;21.90;74.90;;;;;;5079072;28;20028;-61
2023/07/29 12:29:46;;;;;;;;;;;21.90;75.10;;;;;;5068092;28;20028;-61
2023/07/29 12:32:12;;;;;;;0.57;0.57;;;22.00;75.50;;;;;;5077024;28;19920;-61
2023/07/29 12:34:39;;;;;;;1.02;0.50;;;21.90;76.30;;;;;;5077566;28;20552;-60
2023/07/29 12:37:05;;;;;;;0.77;0.55;;;21.90;76.80;;;;;;5068934;28;20032;-60
2023/07/29 12:39:34;;;;;;;0.70;0.70;;;21.80;77.00;;;;;;5065188;28;20123;-61
2023/07/29 12:42:01;;;;;;;0.65;0.57;;;21.90;77.30;;;;;;5061408;28;20024;-60
2023/07/29 12:44:34;;;;;;;0.85;0.50;;;22.00;77.30;;;;;;5072617;28;20037;-60
2023/07/29 12:47:05;;;;;;;0.45;0.40;;;22.10;77.00;;;;;;5073911;28;20024;-60
2023/07/29 12:49:31;;;;;;;0.45;0.45;;;22.20;77.00;;;;;;5075793;28;20064;-60